sensor_id;sensor_type;location;lat;lon;timestamp;temperature;humidity
8633;DHT22;4354;49.832;10.746;2023-02-20T00:00:28;7.50;99.90
8633;DHT22;4354;49.832;10.746;2023-02-20T00:02:55;7.40;99.90
8633;DHT22;4354;49.832;10.746;2023-02-20T00:05:22;7.50;99.90
8633;DHT22;4354;49.832;10.746;2023-02-20T00:07:49;7.40;99.90
8633;DHT22;4354;49.832;10.746;2023-02-20T00:10:17;7.40;99.90
8633;DHT22;4354;49.832;10.746;2023-02-20T00:12:44;7.40;99.90
8633;DHT22;4354;49.832;10.746;2023-02-20T00:15:13;7.40;99.90
8633;DHT22;4354;49.832;10.746;2023-02-20T00:17:44;7.40;99.90
8633;DHT22;4354;49.832;10.746;2023-02-20T00:20:14;7.40;99.90
8633;DHT22;4354;49.832;10.746;2023-02-20T00:22:41;7.40;99.90
8633;DHT22;4354;49.832;10.746;2023-02-20T00:25:08;7.40;99.90
8633;DHT22;4354;49.832;10.746;2023-02-20T00:27:35;7.40;99.90
8633;DHT22;4354;49.832;10.746;2023-02-20T00:30:03;7.40;99.90
8633;DHT22;4354;49.832;10.746;2023-02-20T00:32:30;7.40;99.90
8633;DHT22;4354;49.832;10.746;2023-02-20T00:34:57;7.40;99.90
8633;DHT22;4354;49.832;10.746;2023-02-20T00:37:23;7.40;99.90
8633;DHT22;4354;49.832;10.746;2023-02-20T00:39:50;7.30;99.90
8633;DHT22;4354;49.832;10.746;2023-02-20T00:42:17;7.30;99.90
8633;DHT22;4354;49.832;10.746;2023-02-20T00:44:44;7.30;99.90
8633;DHT22;4354;49.832;10.746;2023-02-20T00:47:10;7.30;99.90
8633;DHT22;4354;49.832;10.746;2023-02-20T00:49:38;7.30;99.90
8633;DHT22;4354;49.832;10.746;2023-02-20T00:52:05;7.20;99.90
8633;DHT22;4354;49.832;10.746;2023-02-20T00:54:32;7.20;99.90
8633;DHT22;4354;49.832;10.746;2023-02-20T00:56:58;7.10;99.90
8633;DHT22;4354;49.832;10.746;2023-02-20T00:59:25;7.10;99.90
8633;DHT22;4354;49.832;10.746;2023-02-20T01:01:52;7.10;99.90
8633;DHT22;4354;49.832;10.746;2023-02-20T01:04:19;7.00;99.90
8633;DHT22;4354;49.832;10.746;2023-02-20T01:06:46;7.00;99.90
8633;DHT22;4354;49.832;10.746;2023-02-20T01:09:13;6.90;99.90
8633;DHT22;4354;49.832;10.746;2023-02-20T01:11:42;6.90;99.90
8633;DHT22;4354;49.832;10.746;2023-02-20T01:14:09;6.80;99.90
8633;DHT22;4354;49.832;10.746;2023-02-20T01:16:36;6.80;99.90
8633;DHT22;4354;49.832;10.746;2023-02-20T01:19:03;6.70;99.90
8633;DHT22;4354;49.832;10.746;2023-02-20T01:21:29;6.60;99.90
8633;DHT22;4354;49.832;10.746;2023-02-20T01:23:56;6.50;99.90
8633;DHT22;4354;49.832;10.746;2023-02-20T01:26:23;6.50;99.90
8633;DHT22;4354;49.832;10.746;2023-02-20T01:28:49;6.40;99.90
8633;DHT22;4354;49.832;10.746;2023-02-20T01:31:16;6.30;99.90
8633;DHT22;4354;49.832;10.746;2023-02-20T01:33:43;6.30;99.90
8633;DHT22;4354;49.832;10.746;2023-02-20T01:36:10;6.20;99.90
8633;DHT22;4354;49.832;10.746;2023-02-20T01:38:39;6.10;99.90
8633;DHT22;4354;49.832;10.746;2023-02-20T01:41:07;6.00;99.90
8633;DHT22;4354;49.832;10.746;2023-02-20T01:43:35;5.90;99.90
8633;DHT22;4354;49.832;10.746;2023-02-20T01:49:03;5.70;99.90
8633;DHT22;4354;49.832;10.746;2023-02-20T01:51:34;5.70;99.90
8633;DHT22;4354;49.832;10.746;2023-02-20T01:54:04;5.70;99.90
8633;DHT22;4354;49.832;10.746;2023-02-20T01:56:33;5.70;99.90
8633;DHT22;4354;49.832;10.746;2023-02-20T01:59:01;5.70;99.90
8633;DHT22;4354;49.832;10.746;2023-02-20T02:01:28;5.70;99.90
8633;DHT22;4354;49.832;10.746;2023-02-20T02:03:58;5.80;99.90
8633;DHT22;4354;49.832;10.746;2023-02-20T02:06:25;5.90;99.90
8633;DHT22;4354;49.832;10.746;2023-02-20T02:08:58;6.00;99.90
8633;DHT22;4354;49.832;10.746;2023-02-20T02:11:26;6.10;99.90
8633;DHT22;4354;49.832;10.746;2023-02-20T02:13:55;6.10;99.90
8633;DHT22;4354;49.832;10.746;2023-02-20T02:31:09;6.50;99.90
8633;DHT22;4354;49.832;10.746;2023-02-20T02:34:39;6.50;99.90
8633;DHT22;4354;49.832;10.746;2023-02-20T02:36:58;6.50;99.90
8633;DHT22;4354;49.832;10.746;2023-02-20T02:39:33;6.50;99.90
8633;DHT22;4354;49.832;10.746;2023-02-20T02:42:17;6.50;99.90
8633;DHT22;4354;49.832;10.746;2023-02-20T02:45:00;6.40;99.90
8633;DHT22;4354;49.832;10.746;2023-02-20T02:47:44;6.50;99.90
8633;DHT22;4354;49.832;10.746;2023-02-20T02:50:25;6.60;99.90
8633;DHT22;4354;49.832;10.746;2023-02-20T02:52:53;6.60;99.90
8633;DHT22;4354;49.832;10.746;2023-02-20T02:55:26;6.60;99.90
8633;DHT22;4354;49.832;10.746;2023-02-20T02:58:00;6.70;99.90
8633;DHT22;4354;49.832;10.746;2023-02-20T03:00:33;6.70;99.90
8633;DHT22;4354;49.832;10.746;2023-02-20T03:11:27;6.80;99.90
8633;DHT22;4354;49.832;10.746;2023-02-20T03:13:58;6.80;99.90
8633;DHT22;4354;49.832;10.746;2023-02-20T03:19:39;6.80;99.90
8633;DHT22;4354;49.832;10.746;2023-02-20T03:22:23;6.80;99.90
8633;DHT22;4354;49.832;10.746;2023-02-20T03:24:56;6.70;99.90
8633;DHT22;4354;49.832;10.746;2023-02-20T03:27:27;6.70;99.90
8633;DHT22;4354;49.832;10.746;2023-02-20T03:29:58;6.60;99.90
8633;DHT22;4354;49.832;10.746;2023-02-20T03:32:26;6.60;99.90
8633;DHT22;4354;49.832;10.746;2023-02-20T03:35:13;6.60;99.90
8633;DHT22;4354;49.832;10.746;2023-02-20T03:38:02;6.60;99.90
8633;DHT22;4354;49.832;10.746;2023-02-20T03:40:49;6.70;99.90
8633;DHT22;4354;49.832;10.746;2023-02-20T03:43:34;6.60;99.90
8633;DHT22;4354;49.832;10.746;2023-02-20T03:46:05;6.70;99.90
8633;DHT22;4354;49.832;10.746;2023-02-20T03:48:44;6.60;99.90
8633;DHT22;4354;49.832;10.746;2023-02-20T03:51:12;6.60;99.90
8633;DHT22;4354;49.832;10.746;2023-02-20T03:53:40;6.60;99.90
8633;DHT22;4354;49.832;10.746;2023-02-20T03:56:11;6.60;99.90
8633;DHT22;4354;49.832;10.746;2023-02-20T03:58:42;6.50;99.90
8633;DHT22;4354;49.832;10.746;2023-02-20T04:01:12;6.40;99.90
8633;DHT22;4354;49.832;10.746;2023-02-20T04:03:43;6.40;99.90
8633;DHT22;4354;49.832;10.746;2023-02-20T04:06:12;6.40;99.90
8633;DHT22;4354;49.832;10.746;2023-02-20T04:08:55;6.40;99.90
8633;DHT22;4354;49.832;10.746;2023-02-20T04:11:29;6.30;99.90
8633;DHT22;4354;49.832;10.746;2023-02-20T04:13:57;6.30;99.90
8633;DHT22;4354;49.832;10.746;2023-02-20T04:16:24;6.30;99.90
8633;DHT22;4354;49.832;10.746;2023-02-20T04:18:51;6.30;99.90
8633;DHT22;4354;49.832;10.746;2023-02-20T04:21:32;6.40;99.90
8633;DHT22;4354;49.832;10.746;2023-02-20T04:26:53;6.50;99.90
8633;DHT22;4354;49.832;10.746;2023-02-20T04:29:20;6.50;99.90
8633;DHT22;4354;49.832;10.746;2023-02-20T04:31:47;6.50;99.90
8633;DHT22;4354;49.832;10.746;2023-02-20T04:34:14;6.50;99.90
8633;DHT22;4354;49.832;10.746;2023-02-20T04:36:41;6.60;99.90
8633;DHT22;4354;49.832;10.746;2023-02-20T04:39:08;6.60;99.90
8633;DHT22;4354;49.832;10.746;2023-02-20T04:41:34;6.60;99.90
8633;DHT22;4354;49.832;10.746;2023-02-20T04:44:01;6.60;99.90
8633;DHT22;4354;49.832;10.746;2023-02-20T04:46:46;6.60;99.90
8633;DHT22;4354;49.832;10.746;2023-02-20T04:49:13;6.60;99.90
8633;DHT22;4354;49.832;10.746;2023-02-20T04:51:43;6.70;99.90
8633;DHT22;4354;49.832;10.746;2023-02-20T04:54:09;6.70;99.90
8633;DHT22;4354;49.832;10.746;2023-02-20T04:56:36;6.70;99.90
8633;DHT22;4354;49.832;10.746;2023-02-20T04:59:03;6.70;99.90
8633;DHT22;4354;49.832;10.746;2023-02-20T05:01:30;6.60;99.90
8633;DHT22;4354;49.832;10.746;2023-02-20T05:03:56;6.60;99.90
8633;DHT22;4354;49.832;10.746;2023-02-20T05:06:23;6.50;99.90
8633;DHT22;4354;49.832;10.746;2023-02-20T05:08:50;6.60;99.90
8633;DHT22;4354;49.832;10.746;2023-02-20T05:11:17;6.50;99.90
8633;DHT22;4354;49.832;10.746;2023-02-20T05:13:44;6.50;99.90
8633;DHT22;4354;49.832;10.746;2023-02-20T05:16:10;6.50;99.90
8633;DHT22;4354;49.832;10.746;2023-02-20T05:18:39;6.50;99.90
8633;DHT22;4354;49.832;10.746;2023-02-20T05:21:06;6.50;99.90
8633;DHT22;4354;49.832;10.746;2023-02-20T05:23:51;6.50;99.90
8633;DHT22;4354;49.832;10.746;2023-02-20T05:26:20;6.50;99.90
8633;DHT22;4354;49.832;10.746;2023-02-20T05:28:47;6.50;99.90
8633;DHT22;4354;49.832;10.746;2023-02-20T05:31:14;6.50;99.90
8633;DHT22;4354;49.832;10.746;2023-02-20T05:33:43;6.50;99.90
8633;DHT22;4354;49.832;10.746;2023-02-20T05:36:10;6.50;99.90
8633;DHT22;4354;49.832;10.746;2023-02-20T05:38:37;6.60;99.90
8633;DHT22;4354;49.832;10.746;2023-02-20T05:41:04;6.60;99.90
8633;DHT22;4354;49.832;10.746;2023-02-20T05:43:31;6.60;99.90
8633;DHT22;4354;49.832;10.746;2023-02-20T05:45:58;6.60;99.90
8633;DHT22;4354;49.832;10.746;2023-02-20T05:48:24;6.60;99.90
8633;DHT22;4354;49.832;10.746;2023-02-20T05:50:51;6.60;99.90
8633;DHT22;4354;49.832;10.746;2023-02-20T05:53:19;6.50;99.90
8633;DHT22;4354;49.832;10.746;2023-02-20T05:55:46;6.50;99.90
8633;DHT22;4354;49.832;10.746;2023-02-20T05:58:13;6.50;99.90
8633;DHT22;4354;49.832;10.746;2023-02-20T06:00:39;6.50;99.90
8633;DHT22;4354;49.832;10.746;2023-02-20T06:03:07;6.50;99.90
8633;DHT22;4354;49.832;10.746;2023-02-20T06:05:35;6.50;99.90
8633;DHT22;4354;49.832;10.746;2023-02-20T06:08:02;6.50;99.90
8633;DHT22;4354;49.832;10.746;2023-02-20T06:10:30;6.50;99.90
8633;DHT22;4354;49.832;10.746;2023-02-20T06:12:57;6.50;99.90
8633;DHT22;4354;49.832;10.746;2023-02-20T06:15:23;6.60;99.90
8633;DHT22;4354;49.832;10.746;2023-02-20T06:17:50;6.60;99.90
8633;DHT22;4354;49.832;10.746;2023-02-20T06:20:17;6.60;99.90
8633;DHT22;4354;49.832;10.746;2023-02-20T06:22:46;6.60;99.90
8633;DHT22;4354;49.832;10.746;2023-02-20T06:25:13;6.60;99.90
8633;DHT22;4354;49.832;10.746;2023-02-20T06:27:40;6.60;99.90
8633;DHT22;4354;49.832;10.746;2023-02-20T06:30:08;6.60;99.90
8633;DHT22;4354;49.832;10.746;2023-02-20T06:32:35;6.60;99.90
8633;DHT22;4354;49.832;10.746;2023-02-20T06:35:01;6.60;99.90
8633;DHT22;4354;49.832;10.746;2023-02-20T06:37:28;6.60;99.90
8633;DHT22;4354;49.832;10.746;2023-02-20T06:39:55;6.60;99.90
8633;DHT22;4354;49.832;10.746;2023-02-20T06:42:22;6.60;99.90
8633;DHT22;4354;49.832;10.746;2023-02-20T06:44:48;6.60;99.90
8633;DHT22;4354;49.832;10.746;2023-02-20T06:47:15;6.60;99.90
8633;DHT22;4354;49.832;10.746;2023-02-20T06:49:42;6.60;99.90
8633;DHT22;4354;49.832;10.746;2023-02-20T06:52:10;6.70;99.90
8633;DHT22;4354;49.832;10.746;2023-02-20T06:54:37;6.80;99.90
8633;DHT22;4354;49.832;10.746;2023-02-20T06:57:04;6.70;99.90
8633;DHT22;4354;49.832;10.746;2023-02-20T06:59:31;6.70;99.90
8633;DHT22;4354;49.832;10.746;2023-02-20T07:01:57;6.70;99.90
8633;DHT22;4354;49.832;10.746;2023-02-20T07:04:25;6.70;99.90
8633;DHT22;4354;49.832;10.746;2023-02-20T07:06:53;6.70;99.90
8633;DHT22;4354;49.832;10.746;2023-02-20T07:09:21;6.70;99.90
8633;DHT22;4354;49.832;10.746;2023-02-20T07:11:48;6.70;99.90
8633;DHT22;4354;49.832;10.746;2023-02-20T07:14:16;6.70;99.90
8633;DHT22;4354;49.832;10.746;2023-02-20T07:16:43;6.90;99.90
8633;DHT22;4354;49.832;10.746;2023-02-20T07:19:09;7.00;99.90
8633;DHT22;4354;49.832;10.746;2023-02-20T07:21:36;7.20;99.90
8633;DHT22;4354;49.832;10.746;2023-02-20T07:24:03;7.40;99.90
8633;DHT22;4354;49.832;10.746;2023-02-20T07:26:30;7.60;99.90
8633;DHT22;4354;49.832;10.746;2023-02-20T07:28:58;7.80;99.90
8633;DHT22;4354;49.832;10.746;2023-02-20T07:31:26;8.10;99.90
8633;DHT22;4354;49.832;10.746;2023-02-20T07:33:53;8.40;99.90
8633;DHT22;4354;49.832;10.746;2023-02-20T07:36:20;8.80;99.90
8633;DHT22;4354;49.832;10.746;2023-02-20T07:39:01;9.00;99.90
8633;DHT22;4354;49.832;10.746;2023-02-20T07:41:29;9.40;99.90
8633;DHT22;4354;49.832;10.746;2023-02-20T07:44:01;9.50;99.90
8633;DHT22;4354;49.832;10.746;2023-02-20T07:46:28;9.60;99.90
8633;DHT22;4354;49.832;10.746;2023-02-20T07:49:04;9.80;99.90
8633;DHT22;4354;49.832;10.746;2023-02-20T07:51:32;10.60;99.90
8633;DHT22;4354;49.832;10.746;2023-02-20T07:54:00;11.90;99.90
8633;DHT22;4354;49.832;10.746;2023-02-20T07:56:27;13.10;99.90
8633;DHT22;4354;49.832;10.746;2023-02-20T07:58:54;14.10;99.90
8633;DHT22;4354;49.832;10.746;2023-02-20T08:03:48;15.20;99.90
8633;DHT22;4354;49.832;10.746;2023-02-20T08:06:18;14.90;99.90
8633;DHT22;4354;49.832;10.746;2023-02-20T08:08:48;13.90;99.90
8633;DHT22;4354;49.832;10.746;2023-02-20T08:11:17;12.80;99.90
8633;DHT22;4354;49.832;10.746;2023-02-20T08:13:44;12.20;99.90
8633;DHT22;4354;49.832;10.746;2023-02-20T08:16:11;11.90;99.90
8633;DHT22;4354;49.832;10.746;2023-02-20T08:18:39;12.70;99.90
8633;DHT22;4354;49.832;10.746;2023-02-20T08:21:05;14.10;99.90
8633;DHT22;4354;49.832;10.746;2023-02-20T08:23:32;16.20;99.90
8633;DHT22;4354;49.832;10.746;2023-02-20T08:25:59;17.30;99.90
8633;DHT22;4354;49.832;10.746;2023-02-20T08:30:53;19.10;97.50
8633;DHT22;4354;49.832;10.746;2023-02-20T08:33:20;19.80;94.30
8633;DHT22;4354;49.832;10.746;2023-02-20T08:35:46;19.80;91.60
8633;DHT22;4354;49.832;10.746;2023-02-20T08:38:35;20.10;90.80
8633;DHT22;4354;49.832;10.746;2023-02-20T08:41:05;20.20;90.20
8633;DHT22;4354;49.832;10.746;2023-02-20T08:43:34;20.90;85.90
8633;DHT22;4354;49.832;10.746;2023-02-20T08:46:01;21.40;82.30
8633;DHT22;4354;49.832;10.746;2023-02-20T08:48:28;21.80;78.50
8633;DHT22;4354;49.832;10.746;2023-02-20T08:50:55;21.40;77.60
8633;DHT22;4354;49.832;10.746;2023-02-20T08:53:22;21.20;77.10
8633;DHT22;4354;49.832;10.746;2023-02-20T08:55:48;21.20;76.70
8633;DHT22;4354;49.832;10.746;2023-02-20T08:58:20;21.40;74.90
8633;DHT22;4354;49.832;10.746;2023-02-20T09:00:47;21.40;74.80
8633;DHT22;4354;49.832;10.746;2023-02-20T09:03:15;22.00;72.30
8633;DHT22;4354;49.832;10.746;2023-02-20T09:05:42;22.10;72.60
8633;DHT22;4354;49.832;10.746;2023-02-20T09:08:10;22.40;72.80
8633;DHT22;4354;49.832;10.746;2023-02-20T09:10:37;22.50;71.50
8633;DHT22;4354;49.832;10.746;2023-02-20T09:15:31;24.00;67.40
8633;DHT22;4354;49.832;10.746;2023-02-20T09:18:07;24.20;67.50
8633;DHT22;4354;49.832;10.746;2023-02-20T09:20:35;26.30;62.50
8633;DHT22;4354;49.832;10.746;2023-02-20T09:23:03;26.40;62.40
8633;DHT22;4354;49.832;10.746;2023-02-20T09:25:30;26.00;59.10
8633;DHT22;4354;49.832;10.746;2023-02-20T09:27:57;24.30;61.10
8633;DHT22;4354;49.832;10.746;2023-02-20T09:30:24;23.80;61.40
8633;DHT22;4354;49.832;10.746;2023-02-20T09:32:51;22.90;63.10
8633;DHT22;4354;49.832;10.746;2023-02-20T09:35:24;22.60;63.20
8633;DHT22;4354;49.832;10.746;2023-02-20T09:37:51;21.40;64.80
8633;DHT22;4354;49.832;10.746;2023-02-20T09:40:26;19.90;67.00
8633;DHT22;4354;49.832;10.746;2023-02-20T09:45:58;20.90;69.50
8633;DHT22;4354;49.832;10.746;2023-02-20T09:51:27;21.70;65.30
8633;DHT22;4354;49.832;10.746;2023-02-20T09:54:08;20.40;66.80
8633;DHT22;4354;49.832;10.746;2023-02-20T09:56:39;19.00;69.20
8633;DHT22;4354;49.832;10.746;2023-02-20T09:59:34;18.70;71.70
8633;DHT22;4354;49.832;10.746;2023-02-20T10:02:18;18.30;72.00
8633;DHT22;4354;49.832;10.746;2023-02-20T10:04:55;18.30;72.20
8633;DHT22;4354;49.832;10.746;2023-02-20T10:07:28;17.90;73.20
8633;DHT22;4354;49.832;10.746;2023-02-20T10:09:57;17.50;72.80
8633;DHT22;4354;49.832;10.746;2023-02-20T10:15:19;16.50;75.30
8633;DHT22;4354;49.832;10.746;2023-02-20T10:17:58;16.60;78.40
8633;DHT22;4354;49.832;10.746;2023-02-20T10:26:05;18.00;75.40
8633;DHT22;4354;49.832;10.746;2023-02-20T10:28:33;17.30;77.00
8633;DHT22;4354;49.832;10.746;2023-02-20T10:34:03;15.60;80.60
8633;DHT22;4354;49.832;10.746;2023-02-20T10:36:37;15.20;82.00
8633;DHT22;4354;49.832;10.746;2023-02-20T10:39:23;15.00;84.60
8633;DHT22;4354;49.832;10.746;2023-02-20T10:42:11;16.30;83.90
8633;DHT22;4354;49.832;10.746;2023-02-20T10:44:50;16.40;81.80
8633;DHT22;4354;49.832;10.746;2023-02-20T10:47:29;16.00;84.00
8633;DHT22;4354;49.832;10.746;2023-02-20T10:50:05;15.70;84.50
8633;DHT22;4354;49.832;10.746;2023-02-20T10:52:41;16.20;85.20
8633;DHT22;4354;49.832;10.746;2023-02-20T10:55:21;16.60;83.50
8633;DHT22;4354;49.832;10.746;2023-02-20T10:57:57;16.90;83.40
8633;DHT22;4354;49.832;10.746;2023-02-20T11:03:09;17.30;83.70
8633;DHT22;4354;49.832;10.746;2023-02-20T11:05:44;18.00;83.20
8633;DHT22;4354;49.832;10.746;2023-02-20T11:08:12;18.90;81.10
8633;DHT22;4354;49.832;10.746;2023-02-20T11:10:39;19.30;79.00
8633;DHT22;4354;49.832;10.746;2023-02-20T11:13:12;20.00;77.10
8633;DHT22;4354;49.832;10.746;2023-02-20T11:15:42;20.60;74.80
8633;DHT22;4354;49.832;10.746;2023-02-20T11:18:32;20.00;74.50
8633;DHT22;4354;49.832;10.746;2023-02-20T11:21:00;18.80;75.60
8633;DHT22;4354;49.832;10.746;2023-02-20T11:23:35;18.30;76.80
8633;DHT22;4354;49.832;10.746;2023-02-20T11:28:57;18.20;78.40
8633;DHT22;4354;49.832;10.746;2023-02-20T11:31:25;18.30;78.80
8633;DHT22;4354;49.832;10.746;2023-02-20T11:33:54;17.80;77.90
8633;DHT22;4354;49.832;10.746;2023-02-20T11:36:24;17.50;79.20
8633;DHT22;4354;49.832;10.746;2023-02-20T11:38:57;17.00;79.90
8633;DHT22;4354;49.832;10.746;2023-02-20T11:41:35;16.80;81.20
8633;DHT22;4354;49.832;10.746;2023-02-20T11:46:39;16.80;81.50
8633;DHT22;4354;49.832;10.746;2023-02-20T11:51:40;16.40;83.30
8633;DHT22;4354;49.832;10.746;2023-02-20T11:54:17;16.00;82.40
8633;DHT22;4354;49.832;10.746;2023-02-20T11:57:04;15.50;85.10
8633;DHT22;4354;49.832;10.746;2023-02-20T11:59:35;15.10;85.20
8633;DHT22;4354;49.832;10.746;2023-02-20T12:04:42;15.70;86.20
8633;DHT22;4354;49.832;10.746;2023-02-20T12:07:27;15.80;85.90
8633;DHT22;4354;49.832;10.746;2023-02-20T12:09:57;16.10;86.30
8633;DHT22;4354;49.832;10.746;2023-02-20T12:12:27;16.70;86.80
8633;DHT22;4354;49.832;10.746;2023-02-20T12:14:55;17.30;83.90
8633;DHT22;4354;49.832;10.746;2023-02-20T12:17:45;17.50;82.00
8633;DHT22;4354;49.832;10.746;2023-02-20T12:20:19;17.80;81.20
8633;DHT22;4354;49.832;10.746;2023-02-20T12:28:14;18.00;80.40
8633;DHT22;4354;49.832;10.746;2023-02-20T12:31:04;18.20;81.20
8633;DHT22;4354;49.832;10.746;2023-02-20T12:33:50;18.40;78.80
8633;DHT22;4354;49.832;10.746;2023-02-20T12:40:01;18.70;79.40
8633;DHT22;4354;49.832;10.746;2023-02-20T12:42:05;19.00;78.70
8633;DHT22;4354;49.832;10.746;2023-02-20T12:45:02;18.70;79.50
8633;DHT22;4354;49.832;10.746;2023-02-20T12:47:37;18.80;78.00
8633;DHT22;4354;49.832;10.746;2023-02-20T12:55:14;18.50;77.50
8633;DHT22;4354;49.832;10.746;2023-02-20T13:00:52;18.00;76.60
8633;DHT22;4354;49.832;10.746;2023-02-20T13:03:21;18.00;75.70
8633;DHT22;4354;49.832;10.746;2023-02-20T13:05:50;17.60;76.40
8633;DHT22;4354;49.832;10.746;2023-02-20T13:08:28;17.40;77.80
8633;DHT22;4354;49.832;10.746;2023-02-20T13:11:09;17.00;77.70
8633;DHT22;4354;49.832;10.746;2023-02-20T13:16:30;16.90;78.10
8633;DHT22;4354;49.832;10.746;2023-02-20T13:21:36;16.90;78.00
8633;DHT22;4354;49.832;10.746;2023-02-20T13:26:48;16.20;79.70
8633;DHT22;4354;49.832;10.746;2023-02-20T13:29:23;16.30;80.00
8633;DHT22;4354;49.832;10.746;2023-02-20T13:31:55;16.30;79.20
8633;DHT22;4354;49.832;10.746;2023-02-20T13:34:33;16.40;79.90
8633;DHT22;4354;49.832;10.746;2023-02-20T13:37:01;16.50;78.90
8633;DHT22;4354;49.832;10.746;2023-02-20T13:41:59;16.10;79.80
8633;DHT22;4354;49.832;10.746;2023-02-20T13:44:41;16.10;79.60
8633;DHT22;4354;49.832;10.746;2023-02-20T13:49:54;15.90;80.80
8633;DHT22;4354;49.832;10.746;2023-02-20T13:57:53;15.90;80.70
8633;DHT22;4354;49.832;10.746;2023-02-20T14:00:24;15.70;81.90
8633;DHT22;4354;49.832;10.746;2023-02-20T14:02:52;15.40;80.40
8633;DHT22;4354;49.832;10.746;2023-02-20T14:05:29;15.20;81.40
8633;DHT22;4354;49.832;10.746;2023-02-20T14:07:58;14.80;80.50
8633;DHT22;4354;49.832;10.746;2023-02-20T14:10:33;14.70;82.30
8633;DHT22;4354;49.832;10.746;2023-02-20T14:13:13;14.60;82.70
8633;DHT22;4354;49.832;10.746;2023-02-20T14:15:55;14.50;84.00
8633;DHT22;4354;49.832;10.746;2023-02-20T14:18:30;14.40;84.50
8633;DHT22;4354;49.832;10.746;2023-02-20T14:21:06;14.40;85.00
8633;DHT22;4354;49.832;10.746;2023-02-20T14:23:34;14.30;84.30
8633;DHT22;4354;49.832;10.746;2023-02-20T14:26:04;14.30;83.30
8633;DHT22;4354;49.832;10.746;2023-02-20T14:28:35;14.20;84.40
8633;DHT22;4354;49.832;10.746;2023-02-20T14:31:32;14.20;83.20
8633;DHT22;4354;49.832;10.746;2023-02-20T14:34:06;14.00;83.80
8633;DHT22;4354;49.832;10.746;2023-02-20T14:49:39;13.80;84.80
8633;DHT22;4354;49.832;10.746;2023-02-20T14:54:40;13.60;88.10
8633;DHT22;4354;49.832;10.746;2023-02-20T14:57:14;13.60;88.40
8633;DHT22;4354;49.832;10.746;2023-02-20T14:59:41;13.60;89.10
8633;DHT22;4354;49.832;10.746;2023-02-20T15:04:59;13.30;87.70
8633;DHT22;4354;49.832;10.746;2023-02-20T15:07:28;13.20;90.20
8633;DHT22;4354;49.832;10.746;2023-02-20T15:09:58;13.10;90.30
8633;DHT22;4354;49.832;10.746;2023-02-20T15:12:31;13.00;90.60
8633;DHT22;4354;49.832;10.746;2023-02-20T15:15:05;12.90;90.30
8633;DHT22;4354;49.832;10.746;2023-02-20T15:17:35;12.80;90.30
8633;DHT22;4354;49.832;10.746;2023-02-20T15:20:34;12.80;89.60
8633;DHT22;4354;49.832;10.746;2023-02-20T15:23:10;12.80;90.20
8633;DHT22;4354;49.832;10.746;2023-02-20T15:25:42;12.70;89.80
8633;DHT22;4354;49.832;10.746;2023-02-20T15:33:37;12.40;91.30
8633;DHT22;4354;49.832;10.746;2023-02-20T15:36:08;12.50;91.10
8633;DHT22;4354;49.832;10.746;2023-02-20T15:38:37;12.40;91.20
8633;DHT22;4354;49.832;10.746;2023-02-20T15:41:04;12.30;91.40
8633;DHT22;4354;49.832;10.746;2023-02-20T15:43:32;12.30;91.80
8633;DHT22;4354;49.832;10.746;2023-02-20T15:46:13;12.30;92.30
8633;DHT22;4354;49.832;10.746;2023-02-20T15:48:43;12.20;92.20
8633;DHT22;4354;49.832;10.746;2023-02-20T15:51:10;12.10;92.80
8633;DHT22;4354;49.832;10.746;2023-02-20T15:53:40;12.10;92.90
8633;DHT22;4354;49.832;10.746;2023-02-20T15:56:09;12.10;93.00
8633;DHT22;4354;49.832;10.746;2023-02-20T15:58:38;12.00;92.90
8633;DHT22;4354;49.832;10.746;2023-02-20T16:01:05;12.00;92.70
8633;DHT22;4354;49.832;10.746;2023-02-20T16:03:33;11.90;93.30
8633;DHT22;4354;49.832;10.746;2023-02-20T16:06:16;11.80;93.60
8633;DHT22;4354;49.832;10.746;2023-02-20T16:08:43;11.70;94.10
8633;DHT22;4354;49.832;10.746;2023-02-20T16:11:11;11.60;93.90
8633;DHT22;4354;49.832;10.746;2023-02-20T16:13:40;11.60;94.30
8633;DHT22;4354;49.832;10.746;2023-02-20T16:16:21;11.50;95.20
8633;DHT22;4354;49.832;10.746;2023-02-20T16:18:50;11.40;95.40
8633;DHT22;4354;49.832;10.746;2023-02-20T16:21:21;11.30;95.60
8633;DHT22;4354;49.832;10.746;2023-02-20T16:23:48;11.20;95.70
8633;DHT22;4354;49.832;10.746;2023-02-20T16:26:27;11.20;96.40
8633;DHT22;4354;49.832;10.746;2023-02-20T16:28:58;11.10;96.90
8633;DHT22;4354;49.832;10.746;2023-02-20T16:34:31;10.90;98.30
8633;DHT22;4354;49.832;10.746;2023-02-20T16:36:59;10.70;99.20
8633;DHT22;4354;49.832;10.746;2023-02-20T16:39:26;10.60;99.80
8633;DHT22;4354;49.832;10.746;2023-02-20T16:41:54;10.60;99.90
8633;DHT22;4354;49.832;10.746;2023-02-20T16:44:41;10.40;99.90
8633;DHT22;4354;49.832;10.746;2023-02-20T16:47:10;10.30;99.90
8633;DHT22;4354;49.832;10.746;2023-02-20T16:49:37;10.10;99.90
8633;DHT22;4354;49.832;10.746;2023-02-20T16:54:47;9.90;99.90
8633;DHT22;4354;49.832;10.746;2023-02-20T16:57:15;9.70;99.90
8633;DHT22;4354;49.832;10.746;2023-02-20T16:59:42;9.60;99.90
8633;DHT22;4354;49.832;10.746;2023-02-20T17:02:15;9.40;99.90
8633;DHT22;4354;49.832;10.746;2023-02-20T17:04:42;9.20;99.90
8633;DHT22;4354;49.832;10.746;2023-02-20T17:07:09;9.20;99.90
8633;DHT22;4354;49.832;10.746;2023-02-20T17:09:37;9.10;99.90
8633;DHT22;4354;49.832;10.746;2023-02-20T17:12:13;9.00;99.90
8633;DHT22;4354;49.832;10.746;2023-02-20T17:14:41;8.90;99.90
8633;DHT22;4354;49.832;10.746;2023-02-20T17:17:09;8.90;99.90
8633;DHT22;4354;49.832;10.746;2023-02-20T17:19:37;8.90;99.90
8633;DHT22;4354;49.832;10.746;2023-02-20T17:22:04;8.80;99.90
8633;DHT22;4354;49.832;10.746;2023-02-20T17:24:31;8.80;99.90
8633;DHT22;4354;49.832;10.746;2023-02-20T17:27:00;8.70;99.90
8633;DHT22;4354;49.832;10.746;2023-02-20T17:29:27;8.90;99.90
8633;DHT22;4354;49.832;10.746;2023-02-20T17:31:55;8.50;99.90
8633;DHT22;4354;49.832;10.746;2023-02-20T17:34:22;8.40;99.90
8633;DHT22;4354;49.832;10.746;2023-02-20T17:36:49;8.40;99.90
8633;DHT22;4354;49.832;10.746;2023-02-20T17:39:21;8.40;99.90
8633;DHT22;4354;49.832;10.746;2023-02-20T17:41:50;8.30;99.90
8633;DHT22;4354;49.832;10.746;2023-02-20T17:44:20;8.30;99.90
8633;DHT22;4354;49.832;10.746;2023-02-20T17:46:47;8.20;99.90
8633;DHT22;4354;49.832;10.746;2023-02-20T17:49:15;8.20;99.90
8633;DHT22;4354;49.832;10.746;2023-02-20T17:51:43;8.10;99.90
8633;DHT22;4354;49.832;10.746;2023-02-20T17:54:11;8.10;99.90
8633;DHT22;4354;49.832;10.746;2023-02-20T17:56:40;8.00;99.90
8633;DHT22;4354;49.832;10.746;2023-02-20T17:59:07;8.00;99.90
8633;DHT22;4354;49.832;10.746;2023-02-20T18:01:34;8.00;99.90
8633;DHT22;4354;49.832;10.746;2023-02-20T18:04:01;8.10;99.90
8633;DHT22;4354;49.832;10.746;2023-02-20T18:06:32;7.80;99.90
8633;DHT22;4354;49.832;10.746;2023-02-20T18:08:59;7.80;99.90
8633;DHT22;4354;49.832;10.746;2023-02-20T18:11:27;7.70;99.90
8633;DHT22;4354;49.832;10.746;2023-02-20T18:13:55;7.60;99.90
8633;DHT22;4354;49.832;10.746;2023-02-20T18:16:23;7.60;99.90
8633;DHT22;4354;49.832;10.746;2023-02-20T18:18:50;7.80;99.90
8633;DHT22;4354;49.832;10.746;2023-02-20T18:21:20;7.60;99.90
8633;DHT22;4354;49.832;10.746;2023-02-20T18:23:47;7.50;99.90
8633;DHT22;4354;49.832;10.746;2023-02-20T18:26:15;7.70;99.90
8633;DHT22;4354;49.832;10.746;2023-02-20T18:28:43;7.40;99.90
8633;DHT22;4354;49.832;10.746;2023-02-20T18:31:10;7.40;99.90